Time;durP1;ratioP1;P1;durP2;ratioP2;P2;SDS_P1;SDS_P2;PMS_P1;PMS_P2;Temp;Humidity;BMP_temperature;BMP_pressure;BME280_temperature;BME280_humidity;BME280_pressure;Samples;Min_cycle;Max_cycle;Signal;HPM_P1;HPM_P2
2022/10/18 00:01:12;;;;;;;0.00;0.00;;;;;;;;;;4957061;28;20473;-81
2022/10/18 00:03:38;;;;;;;0.00;0.00;;;;;;;;;;4957110;28;20078;-81
2022/10/18 00:06:05;;;;;;;0.00;0.00;;;;;;;;;;4957126;28;20393;-81
2022/10/18 00:08:31;;;;;;;0.00;0.00;;;;;;;;;;4974326;28;20053;-81
2022/10/18 00:10:57;;;;;;;0.00;0.00;;;;;;;;;;4956931;28;20042;-81
2022/10/18 00:13:23;;;;;;;0.00;0.00;;;;;;;;;;4956681;28;20423;-81
2022/10/18 00:15:54;;;;;;;0.00;0.00;;;;;;;;;;4956826;28;20043;-80
2022/10/18 00:18:21;;;;;;;0.00;0.00;;;;;;;;;;4956617;28;20096;-80
2022/10/18 00:20:56;;;;;;;0.00;0.00;;;;;;;;;;4956864;28;20042;-80
2022/10/18 00:23:22;;;;;;;0.00;0.00;;;;;;;;;;4956893;28;20485;-80
2022/10/18 00:25:47;;;;;;;0.20;0.10;;;;;;;;;;4941042;28;20149;-81
2022/10/18 00:28:13;;;;;;;0.00;0.00;;;;;;;;;;4956790;28;20058;-84
2022/10/18 00:30:39;;;;;;;0.00;0.00;;;;;;;;;;4956948;28;20055;-81
2022/10/18 00:33:05;;;;;;;0.00;0.00;;;;;;;;;;4956464;28;20038;-81
2022/10/18 00:35:34;;;;;;;0.00;0.00;;;;;;;;;;4956667;28;20438;-81
2022/10/18 00:38:00;;;;;;;0.00;0.00;;;;;;;;;;4973858;28;20055;-80
2022/10/18 00:40:26;;;;;;;0.00;0.00;;;;;;;;;;4956919;28;20038;-82
2022/10/18 00:42:52;;;;;;;0.00;0.00;;;;;;;;;;4940706;28;20362;-79
2022/10/18 00:45:22;;;;;;;0.00;0.00;;;;;;;;;;4956443;28;20055;-80
2022/10/18 00:47:51;;;;;;;0.00;0.00;;;;;;;;;;4973465;28;20101;-79
2022/10/18 00:50:18;;;;;;;0.00;0.00;;;;;;;;;;4956749;28;20402;-80
2022/10/18 00:52:47;;;;;;;0.00;0.00;;;;;;;;;;4956171;28;20081;-80
2022/10/18 00:55:13;;;;;;;0.00;0.00;;;;;;;;;;4973958;28;20433;-80
2022/10/18 00:57:41;;;;;;;0.00;0.00;;;;;;;;;;4956314;28;20047;-80
2022/10/18 01:00:08;;;;;;;0.00;0.00;;;;;;;;;;4959562;28;20050;-80
2022/10/18 01:02:35;;;;;;;0.00;0.00;;;;;;;;;;4944495;28;20487;-80
2022/10/18 01:05:01;;;;;;;0.00;0.00;;;;;;;;;;4960331;28;20051;-79
2022/10/18 01:07:38;;;;;;;0.00;0.00;;;;;;;;;;4977424;28;20047;-80
2022/10/18 01:10:18;;;;;;;0.00;0.00;;;;;;;;;;4978004;28;20466;-80
2022/10/18 01:12:59;;;;;;;0.00;0.00;;;;;;;;;;4959936;28;20568;-80
2022/10/18 01:15:27;;;;;;;0.00;0.00;;;;;;;;;;4960041;28;20047;-79
2022/10/18 01:18:25;;;;;;;0.00;0.00;;;;;;;;;;4977289;28;20047;-80
2022/10/18 01:21:01;;;;;;;0.00;0.00;;;;;;;;;;4934778;28;20133;-80
2022/10/18 01:23:40;;;;;;;0.00;0.00;;;;;;;;;;4959742;28;20046;-80
2022/10/18 01:26:26;;;;;;;0.00;0.00;;;;;;;;;;4960234;28;20046;-80
2022/10/18 01:28:52;;;;;;;;;;;;;;;;;;4956817;28;20062;-79
2022/10/18 01:31:18;;;;;;;;;;;;;;;;;;4956959;29;19918;-80
2022/10/18 01:34:04;;;;;;;0.00;0.00;;;;;;;;;;4956374;29;20250;-80
2022/10/18 01:36:35;;;;;;;0.00;0.00;;;;;;;;;;4956813;29;20518;-79
2022/10/18 01:39:05;;;;;;;0.00;0.00;;;;;;;;;;4957543;28;20047;-79
2022/10/18 01:41:31;;;;;;;0.00;0.00;;;;;;;;;;4956423;29;20503;-80
2022/10/18 01:44:02;;;;;;;0.00;0.00;;;;;;;;;;4956197;29;20082;-80
2022/10/18 01:46:29;;;;;;;0.00;0.00;;;;;;;;;;4956458;29;20066;-80
2022/10/18 01:48:55;;;;;;;0.00;0.00;;;;;;;;;;4955968;28;20043;-79
2022/10/18 01:51:29;;;;;;;0.00;0.00;;;;;;;;;;4957947;29;20035;-80
2022/10/18 01:53:55;;;;;;;0.00;0.00;;;;;;;;;;4955994;29;20506;-79
2022/10/18 01:56:33;;;;;;;0.00;0.00;;;;;;;;;;4957465;29;20094;-80
2022/10/18 01:59:07;;;;;;;0.00;0.00;;;;;;;;;;4955957;28;20058;-80
2022/10/18 02:01:39;;;;;;;0.00;0.00;;;;;;;;;;4940173;29;20389;-80
2022/10/18 02:04:08;;;;;;;0.00;0.00;;;;;;;;;;4939846;29;20084;-80
2022/10/18 02:06:41;;;;;;;0.00;0.00;;;;;;;;;;4956113;29;20146;-80
2022/10/18 02:09:16;;;;;;;0.00;0.00;;;;;;;;;;4955735;28;20047;-79
2022/10/18 02:11:42;;;;;;;0.00;0.00;;;;;;;;;;4956123;29;20404;-79
2022/10/18 02:14:11;;;;;;;0.00;0.00;;;;;;;;;;4955761;29;20401;-79
2022/10/18 02:16:39;;;;;;;0.00;0.00;;;;;;;;;;4955905;29;20527;-80
2022/10/18 02:19:09;;;;;;;0.00;0.00;;;;;;;;;;4955513;28;20057;-79
2022/10/18 02:21:37;;;;;;;0.00;0.00;;;;;;;;;;4955952;29;20047;-79
2022/10/18 02:24:04;;;;;;;0.00;0.00;;;;;;;;;;4955524;29;20051;-80
2022/10/18 02:26:30;;;;;;;0.00;0.00;;;;;;;;;;4955600;29;20043;-80
2022/10/18 02:28:56;;;;;;;0.00;0.00;;;;;;;;;;4939311;29;20398;-80
2022/10/18 02:31:36;;;;;;;0.00;0.00;;;;;;;;;;4955745;29;20050;-80
2022/10/18 02:34:20;;;;;;;0.00;0.00;;;;;;;;;;4955477;29;20047;-79
2022/10/18 02:36:54;;;;;;;0.00;0.00;;;;;;;;;;4955589;29;20093;-79
2022/10/18 02:39:22;;;;;;;0.00;0.00;;;;;;;;;;4955276;28;20491;-80
2022/10/18 02:41:48;;;;;;;0.00;0.00;;;;;;;;;;4955674;29;20533;-80
2022/10/18 02:44:14;;;;;;;0.00;0.00;;;;;;;;;;4956548;29;20039;-79
2022/10/18 02:46:40;;;;;;;0.00;0.00;;;;;;;;;;4955156;29;20514;-79
2022/10/18 02:49:06;;;;;;;0.00;0.00;;;;;;;;;;4955109;28;20462;-80
2022/10/18 02:51:32;;;;;;;0.00;0.00;;;;;;;;;;4955273;29;20085;-79
2022/10/18 02:53:58;;;;;;;0.00;0.00;;;;;;;;;;4956392;29;20075;-80
2022/10/18 02:56:24;;;;;;;0.00;0.00;;;;;;;;;;4956638;29;20451;-79
2022/10/18 02:58:50;;;;;;;0.00;0.00;;;;;;;;;;4956010;28;20047;-79
2022/10/18 03:01:16;;;;;;;0.00;0.00;;;;;;;;;;4956511;29;20513;-79
2022/10/18 03:03:42;;;;;;;0.00;0.00;;;;;;;;;;4954725;29;20394;-80
2022/10/18 03:06:08;;;;;;;0.00;0.00;;;;;;;;;;4954853;29;20047;-80
2022/10/18 03:08:35;;;;;;;0.00;0.00;;;;;;;;;;4956034;28;20047;-80
2022/10/18 03:11:01;;;;;;;0.00;0.00;;;;;;;;;;4956151;29;20117;-80
2022/10/18 03:13:27;;;;;;;0.00;0.00;;;;;;;;;;4938563;29;20083;-80
2022/10/18 03:15:53;;;;;;;0.00;0.00;;;;;;;;;;4955909;29;20054;-80
2022/10/18 03:18:19;;;;;;;0.00;0.00;;;;;;;;;;4956056;28;20067;-80
2022/10/18 03:20:45;;;;;;;0.00;0.00;;;;;;;;;;4938513;28;20376;-79
2022/10/18 03:23:11;;;;;;;0.00;0.00;;;;;;;;;;4954166;29;20095;-79
2022/10/18 03:25:37;;;;;;;0.00;0.00;;;;;;;;;;4954148;29;20450;-79
2022/10/18 03:28:03;;;;;;;0.00;0.00;;;;;;;;;;4955128;28;20047;-80
2022/10/18 03:30:29;;;;;;;0.00;0.00;;;;;;;;;;4957513;28;20061;-80
2022/10/18 03:32:55;;;;;;;0.00;0.00;;;;;;;;;;4957568;28;20038;-79
2022/10/18 03:35:21;;;;;;;0.00;0.00;;;;;;;;;;4974869;28;20043;-80
2022/10/18 03:37:47;;;;;;;0.00;0.00;;;;;;;;;;4957428;28;20121;-80
2022/10/18 03:40:13;;;;;;;0.00;0.00;;;;;;;;;;4941352;28;20038;-80
2022/10/18 03:42:39;;;;;;;0.00;0.00;;;;;;;;;;4957582;28;20066;-80
2022/10/18 03:45:05;;;;;;;0.00;0.00;;;;;;;;;;4957270;28;20070;-80
2022/10/18 03:47:31;;;;;;;0.00;0.00;;;;;;;;;;4974448;28;20497;-79
2022/10/18 03:49:57;;;;;;;0.00;0.00;;;;;;;;;;4957129;28;20050;-79
2022/10/18 03:52:23;;;;;;;0.00;0.00;;;;;;;;;;4957526;28;20043;-80
2022/10/18 03:54:49;;;;;;;0.00;0.00;;;;;;;;;;4974540;28;20049;-79
2022/10/18 03:57:15;;;;;;;0.00;0.00;;;;;;;;;;4957348;28;20062;-80
2022/10/18 03:59:42;;;;;;;0.00;0.00;;;;;;;;;;4957140;28;20043;-79
2022/10/18 04:02:08;;;;;;;0.00;0.00;;;;;;;;;;4957043;28;20074;-80
2022/10/18 04:04:34;;;;;;;0.00;0.00;;;;;;;;;;4957120;28;20093;-79
2022/10/18 04:07:00;;;;;;;0.00;0.00;;;;;;;;;;4974370;28;20046;-80
2022/10/18 04:09:26;;;;;;;0.00;0.00;;;;;;;;;;4974126;28;20050;-79
2022/10/18 04:11:52;;;;;;;0.00;0.00;;;;;;;;;;4956908;28;20039;-80
2022/10/18 04:14:20;;;;;;;0.00;0.00;;;;;;;;;;4974207;28;20046;-79
2022/10/18 04:16:46;;;;;;;0.00;0.00;;;;;;;;;;4974395;28;20073;-80
2022/10/18 04:19:12;;;;;;;0.00;0.00;;;;;;;;;;4940727;28;20051;-79
2022/10/18 04:21:38;;;;;;;0.00;0.00;;;;;;;;;;4941043;28;20043;-79
2022/10/18 04:24:05;;;;;;;0.00;0.00;;;;;;;;;;4973899;28;20494;-79
2022/10/18 04:26:31;;;;;;;0.00;0.00;;;;;;;;;;4974140;28;20047;-79
2022/10/18 04:28:57;;;;;;;0.00;0.00;;;;;;;;;;4974124;28;20086;-79
2022/10/18 04:31:23;;;;;;;0.00;0.00;;;;;;;;;;4956585;28;20355;-80
2022/10/18 04:33:49;;;;;;;0.00;0.00;;;;;;;;;;4973393;28;20038;-79
2022/10/18 04:36:15;;;;;;;0.00;0.00;;;;;;;;;;4956750;28;20039;-79
2022/10/18 04:38:41;;;;;;;0.00;0.00;;;;;;;;;;4973850;28;20101;-79
2022/10/18 04:41:07;;;;;;;0.00;0.00;;;;;;;;;;4956663;28;20043;-80
2022/10/18 04:43:33;;;;;;;0.00;0.00;;;;;;;;;;4956999;28;20050;-80
2022/10/18 04:45:59;;;;;;;0.00;0.00;;;;;;;;;;4956442;28;20504;-80
2022/10/18 04:48:25;;;;;;;0.00;0.00;;;;;;;;;;4973798;28;20042;-79
2022/10/18 04:50:51;;;;;;;0.00;0.00;;;;;;;;;;4956353;28;20053;-79
2022/10/18 04:53:17;;;;;;;0.00;0.00;;;;;;;;;;4956582;28;20367;-79
2022/10/18 04:55:44;;;;;;;0.00;0.00;;;;;;;;;;4956503;28;20038;-79
2022/10/18 04:58:11;;;;;;;0.00;0.00;;;;;;;;;;4956476;28;20057;-79
2022/10/18 05:00:37;;;;;;;0.00;0.00;;;;;;;;;;4956268;28;20513;-80
2022/10/18 05:03:03;;;;;;;0.00;0.00;;;;;;;;;;4973929;28;20042;-80
2022/10/18 05:05:29;;;;;;;0.00;0.00;;;;;;;;;;4956663;28;20100;-79
2022/10/18 05:07:55;;;;;;;0.00;0.00;;;;;;;;;;4973752;28;20043;-80
2022/10/18 05:10:21;;;;;;;0.00;0.00;;;;;;;;;;4956266;28;20390;-80
2022/10/18 05:12:48;;;;;;;0.00;0.00;;;;;;;;;;4956444;28;20109;-79
2022/10/18 05:15:14;;;;;;;0.00;0.00;;;;;;;;;;4973531;28;20402;-80
2022/10/18 05:17:40;;;;;;;0.00;0.00;;;;;;;;;;4956425;28;20390;-80
2022/10/18 05:20:06;;;;;;;0.00;0.00;;;;;;;;;;4956220;28;20099;-80
2022/10/18 05:22:32;;;;;;;0.00;0.00;;;;;;;;;;4973823;28;20082;-80
2022/10/18 05:24:58;;;;;;;0.00;0.00;;;;;;;;;;4956068;28;20094;-80
2022/10/18 05:27:24;;;;;;;0.00;0.00;;;;;;;;;;4940443;28;20479;-80
2022/10/18 05:29:50;;;;;;;0.00;0.00;;;;;;;;;;4952762;28;20055;-80
2022/10/18 05:32:16;;;;;;;0.00;0.00;;;;;;;;;;4953074;29;20403;-80
2022/10/18 05:34:42;;;;;;;0.00;0.00;;;;;;;;;;4954821;29;20047;-80
2022/10/18 05:37:08;;;;;;;0.00;0.00;;;;;;;;;;4953143;29;20154;-80
2022/10/18 05:39:37;;;;;;;0.00;0.00;;;;;;;;;;4954345;28;20574;-81
2022/10/18 05:42:05;;;;;;;0.00;0.00;;;;;;;;;;4953246;29;20517;-81
2022/10/18 05:44:31;;;;;;;0.00;0.00;;;;;;;;;;4953823;28;20231;-81
2022/10/18 05:46:57;;;;;;;0.00;0.00;;;;;;;;;;4956708;29;20481;-82
2022/10/18 05:49:23;;;;;;;0.00;0.00;;;;;;;;;;4957973;28;20062;-82
2022/10/18 05:51:49;;;;;;;0.00;0.00;;;;;;;;;;4957875;29;20098;-82
2022/10/18 05:54:15;;;;;;;0.00;0.00;;;;;;;;;;4956909;29;20566;-81
2022/10/18 05:56:41;;;;;;;0.00;0.00;;;;;;;;;;4956687;29;20545;-81
2022/10/18 05:59:10;;;;;;;0.00;0.00;;;;;;;;;;4956385;28;20047;-81
2022/10/18 06:01:37;;;;;;;0.00;0.00;;;;;;;;;;4957789;29;20043;-81
2022/10/18 06:04:03;;;;;;;0.00;0.00;;;;;;;;;;4940370;29;20098;-90
2022/10/18 06:06:30;;;;;;;0.00;0.00;;;;;;;;;;4955719;29;20439;-82
2022/10/18 06:08:56;;;;;;;0.00;0.00;;;;;;;;;;4956376;28;20392;-82
2022/10/18 06:11:22;;;;;;;0.00;0.00;;;;;;;;;;4956999;29;20047;-82
2022/10/18 06:13:49;;;;;;;0.00;0.00;;;;;;;;;;4957219;29;20134;-81
2022/10/18 06:16:16;;;;;;;0.00;0.00;;;;;;;;;;4957060;29;20047;-82
2022/10/18 06:18:42;;;;;;;0.00;0.00;;;;;;;;;;4955712;28;20058;-81
2022/10/18 06:21:09;;;;;;;0.00;0.00;;;;;;;;;;4955711;29;20361;-81
2022/10/18 06:23:35;;;;;;;0.00;0.00;;;;;;;;;;4955749;29;20039;-81
2022/10/18 06:26:05;;;;;;;0.00;0.00;;;;;;;;;;4957062;29;20133;-81
2022/10/18 06:28:33;;;;;;;0.00;0.00;;;;;;;;;;4960153;28;20090;-80
2022/10/18 06:30:59;;;;;;;0.00;0.00;;;;;;;;;;4975984;28;20510;-81
2022/10/18 06:33:25;;;;;;;0.00;0.00;;;;;;;;;;4976080;28;20053;-81
2022/10/18 06:35:58;;;;;;;0.00;0.00;;;;;;;;;;4974674;28;20117;-81
2022/10/18 06:38:25;;;;;;;0.00;0.00;;;;;;;;;;4976602;28;20042;-81
2022/10/18 06:40:51;;;;;;;0.00;0.00;;;;;;;;;;4974777;28;20061;-81
2022/10/18 06:43:17;;;;;;;0.00;0.00;;;;;;;;;;4976361;28;20046;-81
2022/10/18 06:45:43;;;;;;;0.00;0.00;;;;;;;;;;4974790;28;20398;-81
2022/10/18 06:48:09;;;;;;;0.00;0.00;;;;;;;;;;4974690;28;20053;-81
2022/10/18 06:50:35;;;;;;;0.00;0.00;;;;;;;;;;4976097;28;20438;-80
2022/10/18 06:53:02;;;;;;;0.00;0.00;;;;;;;;;;4976106;28;20039;-80
2022/10/18 06:55:29;;;;;;;0.00;0.00;;;;;;;;;;4975216;28;20042;-79
2022/10/18 06:57:55;;;;;;;0.00;0.00;;;;;;;;;;4973839;28;20042;-79
2022/10/18 07:00:21;;;;;;;0.00;0.00;;;;;;;;;;4974847;28;20134;-79
2022/10/18 07:02:47;;;;;;;0.00;0.00;;;;;;;;;;4975926;28;20130;-79
2022/10/18 07:05:13;;;;;;;0.00;0.00;;;;;;;;;;4974437;28;20082;-80
2022/10/18 07:07:40;;;;;;;0.00;0.00;;;;;;;;;;4975585;28;20050;-79
2022/10/18 07:10:06;;;;;;;0.00;0.00;;;;;;;;;;4974584;28;20038;-79
2022/10/18 07:12:32;;;;;;;0.00;0.00;;;;;;;;;;4974032;28;20058;-80
2022/10/18 07:14:58;;;;;;;0.00;0.00;;;;;;;;;;4975783;28;20043;-79
2022/10/18 07:17:24;;;;;;;0.00;0.00;;;;;;;;;;4974719;28;20049;-79
2022/10/18 07:19:50;;;;;;;0.00;0.00;;;;;;;;;;4975103;28;20517;-80
2022/10/18 07:22:16;;;;;;;0.00;0.00;;;;;;;;;;4974072;28;20046;-79
2022/10/18 07:24:42;;;;;;;0.00;0.00;;;;;;;;;;4958172;28;20125;-79
2022/10/18 07:27:08;;;;;;;0.00;0.00;;;;;;;;;;4973945;28;20083;-79
2022/10/18 07:29:37;;;;;;;0.00;0.00;;;;;;;;;;4973836;28;20055;-79
2022/10/18 07:32:03;;;;;;;0.00;0.00;;;;;;;;;;4973925;28;20078;-79
2022/10/18 07:34:29;;;;;;;0.00;0.00;;;;;;;;;;4975557;28;20038;-79
2022/10/18 07:36:55;;;;;;;0.00;0.00;;;;;;;;;;4973988;28;20094;-78
2022/10/18 07:39:21;;;;;;;0.00;0.00;;;;;;;;;;4973892;28;20057;-79
2022/10/18 07:41:47;;;;;;;0.00;0.00;;;;;;;;;;4973702;28;20074;-79
2022/10/18 07:44:13;;;;;;;0.00;0.00;;;;;;;;;;4974055;28;20085;-79
2022/10/18 07:46:39;;;;;;;0.00;0.00;;;;;;;;;;4973790;28;20047;-79
2022/10/18 07:49:05;;;;;;;0.00;0.00;;;;;;;;;;4973763;28;20474;-80
2022/10/18 07:51:31;;;;;;;0.00;0.00;;;;;;;;;;4973834;28;20057;-79
2022/10/18 07:53:58;;;;;;;0.00;0.00;;;;;;;;;;4974203;28;20431;-79
2022/10/18 07:56:24;;;;;;;0.00;0.00;;;;;;;;;;4973370;28;20042;-79
2022/10/18 07:58:54;;;;;;;0.00;0.00;;;;;;;;;;4973608;28;20128;-79
2022/10/18 08:01:21;;;;;;;0.00;0.00;;;;;;;;;;4973931;28;20054;-80
2022/10/18 08:03:47;;;;;;;0.00;0.00;;;;;;;;;;4975026;28;20390;-79
2022/10/18 08:06:15;;;;;;;0.00;0.00;;;;;;;;;;4973433;28;20039;-80
2022/10/18 08:08:41;;;;;;;0.00;0.00;;;;;;;;;;4974355;28;20050;-80
2022/10/18 08:11:09;;;;;;;0.20;0.00;;;;;;;;;;4973098;28;20486;-79
2022/10/18 08:13:35;;;;;;;0.00;0.00;;;;;;;;;;4972308;28;20611;-79
2022/10/18 08:16:02;;;;;;;0.00;0.00;;;;;;;;;;4974552;28;20334;-79
2022/10/18 08:18:28;;;;;;;0.00;0.00;;;;;;;;;;4956901;28;20057;-78
2022/10/18 08:20:54;;;;;;;0.00;0.00;;;;;;;;;;4973586;28;20070;-79
2022/10/18 08:23:20;;;;;;;0.00;0.00;;;;;;;;;;4957009;28;20082;-79
2022/10/18 08:25:46;;;;;;;0.00;0.00;;;;;;;;;;4973387;28;20053;-79
2022/10/18 08:28:12;;;;;;;0.00;0.00;;;;;;;;;;4974822;28;20046;-84
2022/10/18 08:30:39;;;;;;;0.00;0.00;;;;;;;;;;4976475;28;20401;-79
2022/10/18 08:33:05;;;;;;;0.00;0.00;;;;;;;;;;4975273;28;20042;-79
2022/10/18 08:35:31;;;;;;;0.00;0.00;;;;;;;;;;4993721;28;20509;-79
2022/10/18 08:37:58;;;;;;;0.00;0.00;;;;;;;;;;4975934;28;20053;-79
2022/10/18 08:40:26;;;;;;;0.00;0.00;;;;;;;;;;4993776;28;20038;-79
2022/10/18 08:42:58;;;;;;;0.00;0.00;;;;;;;;;;4976327;28;20049;-79
2022/10/18 08:45:26;;;;;;;0.00;0.00;;;;;;;;;;4993726;28;20072;-81
2022/10/18 08:47:52;;;;;;;0.45;0.08;;;;;;;;;;4993255;28;20046;-81
2022/10/18 08:50:23;;;;;;;0.00;0.00;;;;;;;;;;4976056;28;20173;-80
2022/10/18 08:53:13;;;;;;;0.00;0.00;;;;;;;;;;4975913;28;20046;-80
2022/10/18 08:55:42;;;;;;;0.00;0.00;;;;;;;;;;4993769;28;20038;-80
2022/10/18 08:58:19;;;;;;;0.00;0.00;;;;;;;;;;4993455;28;20038;-80
2022/10/18 09:00:52;;;;;;;0.00;0.00;;;;;;;;;;4976212;28;20050;-80
2022/10/18 09:03:24;;;;;;;0.00;0.00;;;;;;;;;;4975948;28;20061;-80
2022/10/18 09:05:50;;;;;;;0.00;0.00;;;;;;;;;;4993606;28;20048;-80
2022/10/18 09:08:16;;;;;;;0.00;0.00;;;;;;;;;;4975582;28;20046;-80
2022/10/18 09:10:44;;;;;;;0.00;0.00;;;;;;;;;;4975815;28;20409;-80
2022/10/18 09:13:16;;;;;;;0.00;0.00;;;;;;;;;;4975878;28;20133;-80
2022/10/18 09:15:51;;;;;;;0.00;0.00;;;;;;;;;;4993504;28;20378;-80
2022/10/18 09:18:17;;;;;;;0.00;0.00;;;;;;;;;;4993014;28;20050;-80
2022/10/18 09:21:00;;;;;;;0.00;0.00;;;;;;;;;;4995771;28;20121;-80
2022/10/18 09:23:42;;;;;;;0.15;0.00;;;;;;;;;;4996948;28;20046;-80
2022/10/18 09:26:21;;;;;;;0.00;0.00;;;;;;;;;;4997149;28;20038;-80
2022/10/18 09:29:06;;;;;;;0.00;0.00;;;;;;;;;;4996601;28;20054;-80
2022/10/18 09:31:55;;;;;;;0.00;0.00;;;;;;;;;;4979411;28;20221;-80
2022/10/18 09:34:28;;;;;;;0.00;0.00;;;;;;;;;;4979176;28;20452;-80
2022/10/18 09:36:54;;;;;;;0.00;0.00;;;;;;;;;;4979531;28;20050;-80
2022/10/18 09:39:23;;;;;;;0.00;0.00;;;;;;;;;;4963134;28;20485;-80
2022/10/18 09:42:05;;;;;;;0.05;0.05;;;;;;;;;;4979234;28;20046;-80
2022/10/18 09:44:34;;;;;;;0.00;0.00;;;;;;;;;;4996480;28;20043;-80
2022/10/18 09:47:12;;;;;;;0.00;0.00;;;;;;;;;;4963174;28;20480;-80
2022/10/18 09:50:01;;;;;;;0.00;0.00;;;;;;;;;;4977935;28;20144;-80
2022/10/18 09:52:32;;;;;;;0.00;0.00;;;;;;;;;;4966807;28;20075;-80
2022/10/18 09:55:05;;;;;;;0.20;0.00;;;;;;;;;;4962872;28;20508;-80
2022/10/18 09:57:33;;;;;;;0.00;0.00;;;;;;;;;;4996321;28;20196;-80
2022/10/18 10:00:00;;;;;;;0.00;0.00;;;;;;;;;;4978760;28;20053;-80
2022/10/18 10:02:25;;;;;;;0.00;0.00;;;;;;;;;;4978901;28;20144;-80
2022/10/18 10:04:55;;;;;;;0.00;0.00;;;;;;;;;;4978692;28;20070;-80
2022/10/18 10:07:26;;;;;;;0.00;0.00;;;;;;;;;;4996521;28;20054;-79
2022/10/18 10:09:56;;;;;;;0.00;0.00;;;;;;;;;;4995986;28;20030;-80
2022/10/18 10:12:28;;;;;;;0.00;0.00;;;;;;;;;;4995948;28;20053;-80
2022/10/18 10:14:54;;;;;;;0.00;0.00;;;;;;;;;;4977268;28;20038;-80
2022/10/18 10:17:22;;;;;;;0.00;0.00;;;;;;;;;;4996077;28;20045;-79
2022/10/18 10:20:02;;;;;;;0.00;0.00;;;;;;;;;;4978284;28;20564;-80
2022/10/18 10:22:38;;;;;;;0.00;0.00;;;;;;;;;;4978270;28;20053;-79
2022/10/18 10:25:06;;;;;;;0.00;0.00;;;;;;;;;;4996024;28;20100;-79
2022/10/18 10:27:33;;;;;;;0.00;0.00;;;;;;;;;;4962225;28;20386;-79
2022/10/18 10:30:01;;;;;;;0.00;0.00;;;;;;;;;;4977988;28;20066;-79
2022/10/18 10:32:29;;;;;;;0.00;0.00;;;;;;;;;;4976814;28;20572;-80
2022/10/18 10:34:55;;;;;;;0.00;0.00;;;;;;;;;;4994250;28;20034;-79
2022/10/18 10:37:29;;;;;;;0.00;0.00;;;;;;;;;;4995762;28;20050;-80
2022/10/18 10:40:12;;;;;;;0.00;0.00;;;;;;;;;;4995764;28;20042;-86
2022/10/18 10:42:48;;;;;;;0.00;0.00;;;;;;;;;;4978294;28;20411;-88
2022/10/18 10:45:14;;;;;;;0.00;0.00;;;;;;;;;;4977825;28;20457;-87
2022/10/18 10:47:40;;;;;;;0.00;0.00;;;;;;;;;;4977994;28;20039;-86
2022/10/18 10:50:13;;;;;;;0.00;0.00;;;;;;;;;;4977888;28;20041;-84
2022/10/18 10:52:46;;;;;;;0.00;0.00;;;;;;;;;;4978025;28;20042;-86
2022/10/18 10:55:20;;;;;;;0.00;0.00;;;;;;;;;;4977838;28;20434;-86
2022/10/18 10:57:47;;;;;;;0.00;0.00;;;;;;;;;;4961888;28;20046;-86
2022/10/18 11:00:32;;;;;;;0.00;0.00;;;;;;;;;;4977566;28;20038;-86
2022/10/18 11:03:05;;;;;;;0.00;0.00;;;;;;;;;;4977919;28;20486;-86
2022/10/18 11:05:41;;;;;;;0.00;0.00;;;;;;;;;;4961700;28;20065;-86
2022/10/18 11:08:09;;;;;;;;;;;;;;;;;;4961647;28;20093;-86
2022/10/18 11:10:49;;;;;;;0.00;0.00;;;;;;;;;;4977582;28;19917;-86
2022/10/18 11:13:30;;;;;;;0.00;0.00;;;;;;;;;;4961574;28;20137;-86
2022/10/18 11:15:59;;;;;;;0.00;0.00;;;;;;;;;;4977764;28;20390;-86
2022/10/18 11:18:29;;;;;;;1.27;0.08;;;;;;;;;;4977398;28;20045;-85
2022/10/18 11:21:14;;;;;;;0.00;0.00;;;;;;;;;;4977613;28;20100;-86
2022/10/18 11:23:41;;;;;;;0.00;0.00;;;;;;;;;;4977711;28;20046;-86
2022/10/18 11:26:07;;;;;;;0.00;0.00;;;;;;;;;;4977293;28;20137;-85
2022/10/18 11:28:40;;;;;;;0.00;0.00;;;;;;;;;;4960861;28;20140;-85
2022/10/18 11:31:07;;;;;;;0.00;0.00;;;;;;;;;;4961019;28;20046;-85
2022/10/18 11:33:32;;;;;;;0.00;0.00;;;;;;;;;;4960966;28;20121;-86
2022/10/18 11:36:03;;;;;;;0.00;0.00;;;;;;;;;;4977033;28;20462;-85
2022/10/18 11:38:32;;;;;;;0.00;0.00;;;;;;;;;;4960539;28;20528;-86
2022/10/18 11:41:05;;;;;;;0.00;0.00;;;;;;;;;;4961008;28;20078;-85
2022/10/18 11:43:41;;;;;;;0.00;0.00;;;;;;;;;;4976351;28;20382;-86
2022/10/18 11:46:07;;;;;;;;;;;;;;;;;;4977487;28;20444;-86
2022/10/18 11:48:33;;;;;;;0.00;0.00;;;;;;;;;;4976363;28;19925;-85
2022/10/18 11:51:17;;;;;;;0.00;0.00;;;;;;;;;;4960952;28;20093;-85
2022/10/18 11:54:03;;;;;;;0.00;0.00;;;;;;;;;;4976428;28;20107;-86
2022/10/18 11:56:42;;;;;;;0.00;0.00;;;;;;;;;;4960452;28;20077;-86
2022/10/18 11:59:23;;;;;;;0.00;0.00;;;;;;;;;;4976181;28;20044;-86
2022/10/18 12:01:55;;;;;;;0.00;0.00;;;;;;;;;;4959325;28;20074;-86
2022/10/18 12:04:24;;;;;;;0.00;0.00;;;;;;;;;;4960339;28;20081;-86
2022/10/18 12:06:51;;;;;;;0.00;0.00;;;;;;;;;;4960149;28;20505;-86
2022/10/18 12:09:38;;;;;;;0.00;0.00;;;;;;;;;;4976356;28;20096;-87
2022/10/18 12:12:04;;;;;;;0.00;0.00;;;;;;;;;;4976171;28;20073;-86
2022/10/18 12:14:32;;;;;;;0.17;0.00;;;;;;;;;;4957901;28;20081;-86
2022/10/18 12:17:02;;;;;;;0.00;0.00;;;;;;;;;;4957126;28;20043;-86
2022/10/18 12:19:34;;;;;;;0.00;0.00;;;;;;;;;;4974024;28;20526;-86
2022/10/18 12:22:26;;;;;;;0.00;0.00;;;;;;;;;;4940865;28;20046;-86
2022/10/18 12:24:52;;;;;;;0.00;0.00;;;;;;;;;;4938260;28;20062;-86
2022/10/18 12:27:18;;;;;;;0.00;0.00;;;;;;;;;;4956768;28;20043;-86
2022/10/18 12:29:50;;;;;;;0.00;0.00;;;;;;;;;;4938880;28;20051;-86
2022/10/18 12:32:19;;;;;;;0.00;0.00;;;;;;;;;;4918598;29;20051;-86
2022/10/18 12:34:48;;;;;;;0.00;0.00;;;;;;;;;;4937456;29;20043;-86
2022/10/18 12:37:22;;;;;;;0.00;0.00;;;;;;;;;;4936293;29;20421;-86
2022/10/18 12:39:50;;;;;;;0.00;0.00;;;;;;;;;;4937259;29;20051;-87
2022/10/18 12:42:19;;;;;;;0.00;0.00;;;;;;;;;;4937501;29;20483;-87
2022/10/18 12:44:45;;;;;;;0.00;0.00;;;;;;;;;;4937453;29;20047;-88
2022/10/18 12:47:21;;;;;;;0.00;0.00;;;;;;;;;;4937795;29;20201;-87
2022/10/18 12:49:55;;;;;;;0.00;0.00;;;;;;;;;;4937448;29;20043;-86
2022/10/18 12:52:22;;;;;;;0.00;0.00;;;;;;;;;;4921566;29;20086;-87
2022/10/18 12:55:02;;;;;;;0.00;0.00;;;;;;;;;;4936417;29;20043;-87
2022/10/18 12:57:48;;;;;;;0.00;0.00;;;;;;;;;;4921579;29;20049;-87
2022/10/18 13:00:14;;;;;;;;;;;;;;;;;;4937659;29;20082;-87
2022/10/18 13:02:40;;;;;;;;;;;;;;;;;;4938189;29;19919;-87
2022/10/18 13:05:26;;;;;;;0.00;0.00;;;;;;;;;;4937452;29;20334;-87
2022/10/18 13:08:01;;;;;;;0.00;0.00;;;;;;;;;;4937208;28;20055;-87
2022/10/18 13:10:36;;;;;;;0.00;0.00;;;;;;;;;;4936287;29;20133;-86
2022/10/18 13:13:02;;;;;;;;;;;;;;;;;;4937610;29;20035;-86
2022/10/18 13:15:28;;;;;;;;;;;;;;;;;;4937289;29;20044;-86
2022/10/18 13:17:58;;;;;;;0.00;0.00;;;;;;;;;;4937075;28;19941;-87
2022/10/18 13:20:36;;;;;;;0.00;0.00;;;;;;;;;;4936977;29;20039;-87
2022/10/18 13:23:02;;;;;;;0.00;0.00;;;;;;;;;;4936852;29;20462;-86
2022/10/18 13:25:32;;;;;;;0.00;0.00;;;;;;;;;;4937163;29;20062;-88
2022/10/18 13:28:14;;;;;;;0.00;0.00;;;;;;;;;;4937122;29;20050;-87
2022/10/18 13:30:56;;;;;;;0.00;0.00;;;;;;;;;;4921376;29;20457;-91
2022/10/18 13:33:28;;;;;;;0.00;0.00;;;;;;;;;;4937465;29;20431;-87
2022/10/18 13:35:56;;;;;;;0.00;0.00;;;;;;;;;;4937299;29;20062;-87
2022/10/18 13:38:29;;;;;;;0.00;0.00;;;;;;;;;;4918832;29;20058;-88
2022/10/18 13:41:06;;;;;;;0.00;0.00;;;;;;;;;;4936905;29;20126;-87
2022/10/18 13:43:51;;;;;;;0.00;0.00;;;;;;;;;;4920953;29;20043;-87
2022/10/18 13:46:17;;;;;;;0.00;0.00;;;;;;;;;;4936758;29;20158;-87
2022/10/18 13:48:43;;;;;;;0.00;0.00;;;;;;;;;;4920789;29;20513;-87
2022/10/18 13:51:29;;;;;;;0.00;0.00;;;;;;;;;;4937255;29;20051;-87
2022/10/18 13:54:04;;;;;;;0.00;0.00;;;;;;;;;;4923749;29;20062;-86
2022/10/18 13:56:30;;;;;;;0.00;0.00;;;;;;;;;;4936618;29;20054;-86
2022/10/18 13:58:59;;;;;;;0.00;0.00;;;;;;;;;;4920801;29;20052;-87
2022/10/18 14:01:37;;;;;;;0.00;0.00;;;;;;;;;;4920799;29;20391;-86
2022/10/18 14:04:26;;;;;;;0.00;0.00;;;;;;;;;;4954041;29;20054;-87
2022/10/18 14:06:57;;;;;;;0.00;0.00;;;;;;;;;;4903858;29;20179;-87
2022/10/18 14:09:30;;;;;;;0.00;0.00;;;;;;;;;;4940220;29;20129;-87
2022/10/18 14:12:16;;;;;;;0.00;0.00;;;;;;;;;;4924317;29;20400;-88
2022/10/18 14:15:02;;;;;;;0.00;0.00;;;;;;;;;;4924264;29;20035;-88
2022/10/18 14:17:34;;;;;;;0.00;0.00;;;;;;;;;;4940122;29;20082;-87
2022/10/18 14:20:13;;;;;;;0.00;0.00;;;;;;;;;;4939787;29;20126;-87
2022/10/18 14:22:46;;;;;;;0.00;0.00;;;;;;;;;;4940044;29;20471;-88
2022/10/18 14:25:25;;;;;;;0.00;0.00;;;;;;;;;;4924032;29;20443;-87
2022/10/18 14:28:02;;;;;;;0.00;0.00;;;;;;;;;;4923874;28;20098;-87
2022/10/18 14:30:28;;;;;;;0.00;0.00;;;;;;;;;;4957544;28;20078;-87
2022/10/18 14:32:54;;;;;;;0.00;0.00;;;;;;;;;;4959134;28;20051;-86
2022/10/18 14:35:29;;;;;;;0.00;0.00;;;;;;;;;;4958764;28;20497;-86
2022/10/18 14:37:55;;;;;;;0.00;0.00;;;;;;;;;;4942991;28;20116;-87
2022/10/18 14:40:30;;;;;;;0.00;0.00;;;;;;;;;;4958714;28;20047;-87
2022/10/18 14:42:56;;;;;;;0.00;0.00;;;;;;;;;;4942685;28;20478;-87
2022/10/18 14:45:23;;;;;;;0.00;0.00;;;;;;;;;;4942240;28;20081;-88
2022/10/18 14:47:49;;;;;;;0.00;0.00;;;;;;;;;;4958791;28;20431;-87
2022/10/18 14:50:26;;;;;;;0.00;0.00;;;;;;;;;;4957654;28;20108;-86
2022/10/18 14:52:52;;;;;;;0.28;0.00;;;;;;;;;;4958390;28;20533;-87
2022/10/18 14:55:22;;;;;;;0.00;0.00;;;;;;;;;;4958102;28;20034;-87
2022/10/18 14:57:48;;;;;;;0.00;0.00;;;;;;;;;;4958239;28;20501;-87
2022/10/18 15:00:24;;;;;;;0.00;0.00;;;;;;;;;;4958342;28;20042;-87